Weather History for Thedford, NE

Change the Weather History Date:

Wednesday, February 19, 2014

  Actual Average (KLBF) Record (KLBF)
Temperature  
Mean Temperature 42 °F 30 °F  
Max Temperature 58 °F 44 °F 73 °F (1930)
Min Temperature 25 °F 16 °F -11 °F (1959)
Degree Days  
Heating Degree Days 24 35  
Month to date heating degree days 707  
Since 1 July heating degree days 4727  
Cooling Degree Days 0 0  
Month to date cooling degree days 0  
Year to date cooling degree days 0  
Moisture  
Dew Point 21 °F    
Average Humidity 47    
Maximum Humidity 87    
Minimum Humidity 22    
Precipitation  
Precipitation 0.00 in 0.02 in 0.88 in (1951)
Month to date precipitation 0.28  
Year to date precipitation 0.62  
Snow  
Snow 0.00 in 0.20 in 4.40 in (1953)
Month to date snowfall 3.6  
Since 1 July snowfall 19.2  
Snow Depth -    
Sea Level Pressure  
Sea Level Pressure 29.69 in    
Wind  
Wind Speed 12 mph (SSW)    
Max Wind Speed 31 mph    
Max Gust Speed 44 mph    
Visibility 10 miles    
Events Snow    
T = Trace of Precipitation, MM = Missing Value Source: NWS Daily Summary

Daily Weather History Graph

Daily Weather History Graph

Search for Another Location

Airport:

Trip Planner

Search our weather history database for the weather conditions in past years. The results will help you decide how hot, cold, wet, or windy it might be!

Date:

Astronomy

Feb. 19, 2014 Rise Set
Actual Time 7:32 AM CST 6:20 PM CST
Civil Twilight 7:04 AM CST 6:48 PM CST
Nautical Twilight 6:31 AM CST 7:21 PM CST
Astronomical Twilight 5:59 AM CST 7:53 PM CST
Moon 11:21 PM CST (2/19) 9:34 AM CST (2/19)
Length of Visible Light 11h 44m
Length of Day
10h 47m
Waning Gibbous, 79% of the Moon is Illuminated
Feb 19
Waning Gibbous
Feb 22
Last Quarter
Mar 1
New
Mar 8
First Quarter
Mar 16
Full

Hourly Weather History & Observations

Time (CST) Temp. Windchill Dew Point Humidity Pressure Visibility Wind Dir Wind Speed Gust Speed Precip Events Conditions
12:15 AM 27.9 °F - 20.3 °F 73% 29.93 in 10.0 mi Calm Calm - N/A   Clear
12:35 AM 26.1 °F 21.9 °F 20.3 °F 79% 29.92 in 10.0 mi SW 3.5 mph - N/A   Clear
12:55 AM 28.0 °F 20.8 °F 20.7 °F 74% 29.92 in 10.0 mi SSW 6.9 mph - N/A   Clear
1:15 AM 27.1 °F - 19.8 °F 74% 29.91 in 10.0 mi Calm Calm - N/A   Clear
1:35 AM 25.7 °F - 18.9 °F 75% 29.91 in 10.0 mi Calm Calm - N/A   Clear
1:55 AM 29.3 °F 22.3 °F 20.3 °F 69% 29.91 in 10.0 mi SSW 6.9 mph - N/A   Clear
2:15 AM 30.4 °F 22.9 °F 20.1 °F 66% 29.91 in 10.0 mi SSW 8.1 mph - N/A   Clear
2:35 AM 30.2 °F 22.6 °F 20.3 °F 67% 29.91 in 10.0 mi SSW 8.1 mph - N/A   Clear
2:55 AM 30.7 °F 22.6 °F 20.3 °F 65% 29.90 in 10.0 mi SSW 9.2 mph - N/A   Clear
3:15 AM 31.1 °F 22.4 °F 20.1 °F 64% 29.89 in 10.0 mi SSW 10.4 mph - N/A   Clear
3:35 AM 30.4 °F 22.2 °F 19.9 °F 65% 29.89 in 10.0 mi SSW 9.2 mph - N/A   Clear
3:55 AM 31.6 °F 23.7 °F 19.9 °F 62% 29.89 in 10.0 mi SSW 9.2 mph - N/A   Clear
4:15 AM 30.7 °F 22.6 °F 20.1 °F 65% 29.87 in 10.0 mi SSW 9.2 mph - N/A   Clear
4:35 AM 30.6 °F 23.8 °F 20.3 °F 66% 29.87 in 10.0 mi SSW 6.9 mph - N/A   Clear
4:55 AM 30.6 °F 23.1 °F 20.1 °F 65% 29.86 in 10.0 mi SSW 8.1 mph - N/A   Clear
5:15 AM 30.4 °F 24.5 °F 20.1 °F 66% 29.85 in 10.0 mi SSW 5.8 mph - N/A   Clear
5:35 AM 30.2 °F 24.3 °F 20.3 °F 67% 29.85 in 10.0 mi SSW 5.8 mph - N/A   Clear
5:55 AM 28.9 °F 21.1 °F 20.3 °F 70% 29.84 in 10.0 mi SSW 8.1 mph - N/A   Clear
6:15 AM 29.1 °F 20.6 °F 20.5 °F 70% 29.84 in 10.0 mi SSW 9.2 mph - N/A   Clear
6:35 AM 29.1 °F 22.1 °F 21.2 °F 72% 29.82 in 10.0 mi South 6.9 mph - N/A   Clear
6:55 AM 29.8 °F 23.0 °F 21.6 °F 71% 29.81 in 10.0 mi South 6.9 mph - N/A   Clear
7:15 AM 31.1 °F 24.5 °F 21.7 °F 68% 29.80 in 10.0 mi SSW 6.9 mph - N/A   Clear
7:35 AM 32.0 °F 24.2 °F 21.7 °F 66% 29.80 in 10.0 mi SSW 9.2 mph - N/A   Clear
7:55 AM 32.0 °F 24.2 °F 21.7 °F 66% 29.79 in 10.0 mi South 9.2 mph - N/A   Clear
8:15 AM 32.9 °F 25.3 °F 22.1 °F 65% 29.78 in 10.0 mi South 9.2 mph - N/A   Clear
8:35 AM 34.7 °F 26.4 °F 22.1 °F 60% 29.77 in 10.0 mi SSW 11.5 mph 17.3 mph N/A   Clear
8:55 AM 37.6 °F 28.4 °F 21.7 °F 53% 29.75 in 10.0 mi South 16.1 mph 23.0 mph N/A   Clear
9:15 AM 40.3 °F 30.4 °F 19.9 °F 44% 29.74 in 10.0 mi SSW 21.9 mph 27.6 mph N/A   Clear
9:35 AM 43.2 °F 34.0 °F 18.1 °F 37% 29.73 in 10.0 mi SSW 23.0 mph 28.8 mph N/A   Clear
9:55 AM 45.9 °F 37.4 °F 18.5 °F 34% 29.72 in 10.0 mi SSW 24.2 mph 38.0 mph N/A   Clear
10:15 AM 47.7 °F - 18.5 °F 31% 29.71 in 10.0 mi SSW 27.6 mph 38.0 mph N/A   Clear
10:35 AM 49.1 °F - 18.5 °F 30% 29.70 in 10.0 mi SSW 27.6 mph 36.8 mph N/A   Clear
10:55 AM 50.5 °F - 18.7 °F 28% 29.69 in 10.0 mi SSW 25.3 mph 34.5 mph N/A   Clear
11:15 AM 52.2 °F - 18.5 °F 27% 29.69 in 10.0 mi SSW 28.8 mph 42.6 mph N/A   Clear
11:35 AM 52.7 °F - 19.2 °F 27% 29.68 in 10.0 mi SSW 26.5 mph 40.3 mph N/A   Clear
11:55 AM 53.2 °F - 19.4 °F 27% 29.67 in 10.0 mi SSW 24.2 mph 38.0 mph N/A   Clear
12:15 PM 54.1 °F - 19.2 °F 25% 29.66 in 10.0 mi SSW 31.1 mph 43.7 mph N/A   Clear
12:35 PM 55.2 °F - 18.5 °F 24% 29.64 in 10.0 mi SSW 29.9 mph 42.6 mph N/A   Clear
12:55 PM 55.9 °F - 18.7 °F 23% 29.62 in 10.0 mi SSW 27.6 mph 42.6 mph N/A   Clear
1:15 PM 56.3 °F - 19.6 °F 24% 29.61 in 10.0 mi SSW 29.9 mph 40.3 mph N/A   Clear
1:35 PM 57.6 °F - 19.2 °F 23% 29.59 in 10.0 mi SSW 29.9 mph 39.1 mph N/A   Clear
1:55 PM 57.4 °F - 18.9 °F 22% 29.57 in 10.0 mi SSW 25.3 mph 36.8 mph N/A   Clear
2:15 PM 57.7 °F - 19.0 °F 22% 29.56 in 10.0 mi SSW 25.3 mph 40.3 mph N/A   Clear
2:35 PM 57.9 °F - 19.2 °F 22% 29.55 in 10.0 mi SSW 25.3 mph 36.8 mph N/A   Clear
2:55 PM 57.7 °F - 19.2 °F 22% 29.55 in 10.0 mi SSW 21.9 mph 38.0 mph N/A   Clear
3:15 PM 56.8 °F - 19.8 °F 24% 29.54 in 10.0 mi SSW 25.3 mph 32.2 mph N/A   Clear
3:35 PM 58.6 °F - 19.4 °F 22% 29.53 in 10.0 mi SSW 26.5 mph 36.8 mph N/A   Clear
3:55 PM 58.8 °F - 19.4 °F 22% 29.52 in 10.0 mi SSW 27.6 mph 35.7 mph N/A   Clear
4:15 PM 58.1 °F - 19.0 °F 22% 29.52 in 10.0 mi SSW 26.5 mph 35.7 mph N/A   Clear
4:35 PM 57.2 °F - 19.0 °F 23% 29.52 in 10.0 mi SSW 24.2 mph 31.1 mph N/A   Scattered Clouds
4:55 PM 56.5 °F - 18.9 °F 23% 29.51 in 10.0 mi SSW 20.7 mph 27.6 mph N/A   Scattered Clouds
5:15 PM 56.3 °F - 18.5 °F 23% 29.50 in 10.0 mi South 17.3 mph 27.6 mph N/A   Scattered Clouds
5:35 PM 55.8 °F - 18.3 °F 23% 29.50 in 10.0 mi South 16.1 mph 23.0 mph N/A   Scattered Clouds
5:55 PM 54.9 °F - 18.9 °F 24% 29.49 in 10.0 mi South 15.0 mph 20.7 mph N/A   Scattered Clouds
6:15 PM 54.1 °F - 18.9 °F 25% 29.48 in 10.0 mi South 11.5 mph - N/A   Scattered Clouds
6:35 PM 53.2 °F - 19.4 °F 27% 29.48 in 10.0 mi South 13.8 mph 17.3 mph N/A   Scattered Clouds
6:55 PM 53.1 °F - 19.9 °F 27% 29.48 in 10.0 mi South 13.8 mph - N/A   Scattered Clouds
7:15 PM 51.8 °F - 20.1 °F 29% 29.48 in 10.0 mi South 11.5 mph - N/A   Clear
7:35 PM 50.2 °F - 20.3 °F 31% 29.48 in 10.0 mi South 11.5 mph - N/A   Clear
7:55 PM 50.0 °F - 20.7 °F 32% 29.48 in 10.0 mi SSE 10.4 mph - N/A   Scattered Clouds
8:15 PM 50.0 °F - 21.2 °F 32% 29.48 in 10.0 mi South 10.4 mph - N/A   Mostly Cloudy
8:35 PM 49.5 °F - 21.4 °F 33% 29.52 in 10.0 mi NW 11.5 mph 16.1 mph N/A   Overcast
8:55 PM 51.1 °F - 21.0 °F 31% 29.55 in 10.0 mi NW 10.4 mph 16.1 mph N/A   Overcast
9:15 PM 48.9 °F - 28.6 °F 45% 29.57 in 10.0 mi North 16.1 mph 21.9 mph N/A   Overcast
9:35 PM 45.0 °F 39.3 °F 30.9 °F 58% 29.60 in 10.0 mi NNW 11.5 mph - N/A   Overcast
9:55 PM 42.1 °F 34.2 °F 32.2 °F 68% 29.62 in 10.0 mi North 16.1 mph 27.6 mph N/A   Overcast
10:35 PM 39.2 °F 30.2 °F 32.2 °F 76% 29.63 in 10.0 mi North 17.3 mph 24.2 mph N/A   Mostly Cloudy
10:55 PM 39.0 °F 30.3 °F 31.6 °F 75% 29.64 in 10.0 mi North 16.1 mph 25.3 mph N/A   Mostly Cloudy
11:15 PM 38.3 °F 28.7 °F 30.0 °F 72% 29.65 in 10.0 mi North 18.4 mph 27.6 mph N/A   Mostly Cloudy
11:35 PM 36.7 °F 26.3 °F 31.5 °F 81% 29.66 in 10.0 mi NNW 19.6 mph 32.2 mph N/A Snow Light Snow
11:55 PM 34.9 °F 23.9 °F 31.5 °F 87% 29.67 in 2.0 mi NNW 19.6 mph 26.5 mph N/A Snow Light Snow